Shantytown, Nevada
Current Conditions -  °F | °C
As of 9:56 PM on Sunday 25 Jan 2015 (Local Time) from KEKO Reporting Station
Clear Clear  
Wind Chill: 26°   Ceiling: Unl
Heat Index: 32°   Visibility: 10mi
Dew Point: 29°   Wind: 6mph
Humidity: 88%   Direction: 80°E
Pressure: 30.39"   Gusts: NA
Location:  40.3333°N, 115.23°W
Report Text: KEKO 260556Z AUTO 08005KT 10SM CLR 00/M02 A3039 RMK AO2 SLP305 T00001017 10133 21011 53005
Loading
Personal Weather Stations






























Interactive Weather Map New forecast layout! Learn more

10-Day Weather Forecast

Advertisements
Track Severe Weather on mobile